Sprint Open Béziers (34) - J1

Date : 30/10/2021
Distance : 1,700 km
Valeur du circuit : 3756684 point × seconde

Place Nom Licence Catégorie Club Temps min/km CN à J-15 Valeur Points Différence Nouveau CN
1 COMBET Annie 813 D60 4203AR 0:12:58 7'37 4573 3557794 4829 +256 4573
2 TILKIN Hedwige 36907 D60 2517BF 0:13:07 7'42 4273 3362851 4773 +500 4568
3 EUDIER Agnès 13233 D60 2704NM 0:13:29 7'55 4048 3274832 4644 +596 4229
4 ROUPIOZ Jocelyne 10321 D65 0705AR 0:13:30 7'56 4384 3551040 4638 +254 4460
5 ROUX Marie Françoise 25236 D60 4201AR 0:14:17 8'24 4431 3797367 4384 -47 4692
6 ARMBRUSTER Marie 2952 D60 2508BF 0:14:22 8'27 3717 3204054 4358 +641 3903
7 MUYLLAERT Claire 41304 D55 0207HF 0:15:05 8'52 2830 2561150 4151 +1321 3623
8 DECLERCQ Anne 36940 D60 8607NA 0:15:14 8'57 3369 3079266 4110 +741 3369
9 BOULANGER Isabelle 10639 D60 5907HF 0:15:36 9'10 3242 3034512 4014 +772 3481
10 DUBROCA Monique 633 D70 3308NA 0:15:49 9'18 4477 4248673 3959 -518 4490
11 DEVILLE Nelly 2401 D70 5402GE 0:16:00 9'24 4150 3984000 3913 -237 4094
12 GATY Daniele 841 D65 4203AR 0:16:08 9'29 4310 4172080 3881 -429 4322
13 EGGLI Margrit 27392 D70 6803GE 0:16:19 9'35 3858 3776982 3837 -21 3925
14 BOCQUET Pascale 12715 D60 8607NA 0:17:16 10'09 3394 3516184 3626 +232 3453
15 TERRILLON Marie-Therese 15717 D60 4012NA 0:17:46 10'27 3821 4073186 3524 -297 3788
16 DEMONT Francette 386 D60 2408NA 0:18:30 10'52 3825 4245750 3384 -441 3857
17 PITAVAL Sylvie 12060 D60 4201AR 0:18:31 10'53 3671 4078481 3381 -290 3671
18 GIBIAT Danielle 3547 D65 8405PZ 0:18:31 10'53 3040 3377440 3381 +341 3204
19 LECONTE Sylvie 19643 D60 7716IF 0:19:17 11'20 3438 3977766 3247 -191 3498
20 BOELLE Catherine 25433 D60 6408NA 0:20:02 11'47 4192 5038784 3125 -1067 4219
21 LE NAOUR Gaëlle 18142 D60 2904BR 0:21:15 12'30 3528 4498200 2946 -582 3528
22 THIEBAUT Evelyne 16129 D65 5402GE 0:21:25 12'35 3297 4236645 2923 -374 3323
23 MOUCHETTE Régine 2539 D65 5703GE 0:21:46 12'48 2510 2876 +366 2926
24 BONNET-POINSIGNON Christine 2400 D65 5402GE 0:21:58 12'55 2850 3877
25 BOUCHAN Christine 29603 D60 2517BF 0:22:18 13'07 3094 2808 -286 3094
26 PAPILLON Françoise 2761 D65 2109BF 0:23:22 13'44 3034 2680 -354 3051
27 BEN KHALED Isabelle 13761 D60 5906HF 0:26:24 15'31 2609 2372 -237 2609
28 MAYSONNAVE MARTINEZ Catherine 7833 D60 4012NA 0:26:43 15'42 3405 2344 -1061 3357
29 ABISSE Gisele 701 D75 2508BF 0:27:54 16'24 3129 2244 -885 3129
30 POGU Paulette 4671 D70 5402GE 0:28:31 16'46 2649 2196 -453 2649
31 STUTTARD-PEARSON Hilary 11583 D80 6604OC 0:35:37 20'57 1465 1758 +293 1703
32 JEANNOT Sabine 32281 D60 5402GE 0:39:43 23'21 1132 1576 +444 1314
33 LUDEWIG-JAMES Carol 15894 D80 5907HF 0:45:59 27'02 1154 1362 +208 1290
LE ROUX Anne-Francoise 7409 D60 3318NA pm None 4546 0 4599
SCHELCHER Ginette 20409 D60 6806GE pm None 3618 0 3550
BLUM Virginie 12646 D60 5116GE pm None 4238 0 4394
DENIS Martine 12377 D75 9404IF pm None 2355 0 2384
MOLINIER Frederique 3990 D60 7716IF pm None 2724 0 3096